EDHI/XFW METAR and TAF weather

Enter ICAO airport designator
Station Type Date Time Source
EDHI METAR 2021/03/03 21:20 UTC NOAA

EDHI 032120Z AUTO 27014KT 1900 // OVC002/// 04/03 Q1023


Station Type Date Time Source
EDHI Decoded METAR 2021/03/03 21:20 UTC NOAA

Hamburg-Finkenwerder, Germany (EDHI) 53-32N 009-50E 13M
Mar 03, 2021 - 04:20 PM EST / 2021.03.03 2120 UTC
Wind: from the W (270 degrees) at 16 MPH (14 KT):0
Visibility: 1 mile(s):0
Sky conditions: overcast
Temperature: 39 F (4 C)
Dew Point: 37 F (3 C)
Relative Humidity: 93%
Pressure (altimeter): 30.21 in. Hg (1023 hPa)
ob: EDHI 032120Z AUTO 27014KT 1900 // OVC002/// 04/03 Q1023
cycle: 21

Station Type Date Time Source
EDHI TAF 2010/02/22 14:20 UTC NOAA

METAR EDHI 221420Z 17005KT 9999 BKN030 05/02 Q0989

Example: see airport list